• Join FlightAware (Why Join?)
  • Login
  • US Flag 
07:07AM EDT


 

Airport Tracker/Info


-or-


 

Live Flight TrackerFlight Track Log ✈ FSR411 ✈ 26-Jul-2013 ✈ KVQQ - KDET

Flight Track Log - Related Links

Times and Time Zones

All times are in EDT time to prevent confusion due to time zone crossing. See the FSR411 flight status page for this flight to view local times or setup timezone preferences in your user account.

Time Position Orientation Groundspeed Altitude Reporting Facility
EDT Latitude Longitude Course Direction KTS MPH feet Rate Location/Type
11:51AM 30.2061 -81.8806 250° West 170 196 700  Level Jacksonville Center
11:52AM 30.1858 -81.9433 250° West 236 272 3,000 2,640 Climbing Jacksonville Center
11:53AM 30.2092 -82.0008 295° West 236 272 5,900 3,360 Climbing Jacksonville Center
11:54AM 30.2842 -82.0003 360° North 226 260 9,900 3,060 Climbing Jacksonville Center
11:55AM 30.3594 -82.0067 356° North 307 353 12,500 2,340 Climbing Jacksonville Center
11:56AM 30.4578 -82.0178 354° North 375 432 14,700 1,920 Climbing Jacksonville Center
11:57AM 30.5622 -82.0264 356° North 385 443 16,500 2,100 Climbing Jacksonville Center
11:58AM 30.6728 -82.0303 358° North 385 443 18,900 2,220 Climbing Jacksonville Center
11:59AM 30.7878 -82.0342 358° North 390 449 21,000 1,800 Climbing Jacksonville Center
12:00PM 30.9089 -82.0403 358° North 408 470 22,600 1,860 Climbing Jacksonville Center
12:01PM 31.0278 -82.0464 357° North 418 481 24,800 2,040 Climbing Jacksonville Center
12:02PM 31.1511 -82.0528 357° North 429 494 26,700 1,740 Climbing Jacksonville Center
12:03PM 31.2764 -82.0564 359° North 434 499 28,300 1,500 Climbing Jacksonville Center
12:04PM 31.4017 -82.0650 357° North 446 513 29,700 1,320 Climbing Jacksonville Center
12:05PM 31.5292 -82.0686 359° North 453 521 31,000 1,200 Climbing Jacksonville Center
12:06PM 31.6522 -82.0725 358° North 452 520 32,200 1,200 Climbing Jacksonville Center
12:07PM 31.7672 -82.0764 358° North 452 520 33,500 1,200 Climbing Jacksonville Center
12:08PM 31.9072 -82.0850 357° North 452 520 34,700 1,500 Climbing Jacksonville Center
12:10PM 32.1675 -82.0956 358° North 440 506 38,200 1,320 Climbing Atlanta Center
12:11PM 32.2656 -82.0958 360° North 424 488 39,000 360 Climbing Atlanta Center
12:12PM 32.3825 -82.1031 357° North 415 478 39,000 60 Level Atlanta Center
12:13PM 32.5036 -82.1078 358° North 420 483 39,200 420 Climbing Atlanta Center
12:14PM 32.6250 -82.1150 357° North 425 489 39,900 840 Climbing Atlanta Center
12:15PM 32.7378 -82.1175 359° North 420 483 40,900 540 Climbing Atlanta Center
12:16PM 32.8547 -82.1225 358° North 420 483 41,000  Climbing Atlanta Center
12:17PM 32.9736 -82.1297 357° North 420 483 41,000  Level Atlanta Center
12:18PM 33.0928 -82.1344 358° North 425 489 41,000  Level Atlanta Center
12:19PM 33.2097 -82.1394 358° North 425 489 41,000  Level Atlanta Center
12:20PM 33.3392 -82.1442 358° North 425 489 41,000  Level Atlanta Center
12:21PM 33.4583 -82.1514 357° North 425 489 41,000  Level Atlanta Center
12:22PM 33.5731 -82.1514 360° North 425 489 41,000  Level Atlanta Center
12:23PM 33.6922 -82.1564 358° North 425 489 41,000  Level Atlanta Center
12:24PM 33.8111 -82.1561 360° North 425 489 41,000  Level Atlanta Center
12:25PM 33.9300 -82.1586 359° North 425 489 41,000  Level Atlanta Center
12:26PM 34.0492 -82.1608 359° North 425 489 41,000  Level Atlanta Center
12:27PM 34.1556 -82.1611 360° North 420 483 41,000  Level Atlanta Center
12:28PM 34.2725 -82.1611 360° North 420 483 41,000  Level Atlanta Center
12:29PM 34.3914 -82.1633 359° North 420 483 41,000  Level Atlanta Center
12:30PM 34.5083 -82.1608 North 420 483 41,000  Level Atlanta Center
12:31PM 34.6253 -82.1633 359° North 420 483 41,000  Level Atlanta Center
12:32PM 34.7419 -82.1658 359° North 420 483 41,000  Level Atlanta Center
12:33PM 34.8611 -82.1631 North 420 483 41,000  Level Atlanta Center
12:34PM 34.9800 -82.1681 358° North 428 493 41,000  Level Atlanta Center
12:35PM 35.0969 -82.1678 360° North 422 486 41,000  Level Atlanta Center
12:36PM 35.2283 -82.1675 360° North 422 486 41,000  Level Atlanta Center
12:37PM 35.3453 -82.1672 360° North 422 486 41,000  Level Atlanta Center
12:38PM 35.4661 -82.1672 360° North 422 486 41,000  Level Atlanta Center
12:39PM 35.5850 -82.1669 360° North 422 486 41,000  Level Atlanta Center
12:40PM 35.7039 -82.1667 360° North 422 486 41,000  Level Atlanta Center
12:41PM 35.8208 -82.1692 359° North 417 480 41,000  Level Atlanta Center
12:42PM 35.9439 -82.1664 North 422 486 41,000  Level Atlanta Center
12:43PM 36.0503 -82.1639 North 422 486 41,000  Level Atlanta Center
12:44PM 36.1669 -82.1664 359° North 422 486 41,000  Level Atlanta Center
12:45PM 36.2983 -82.1608 North 406 467 41,000  Level Atlanta Center
12:46PM 36.4194 -82.1631 359° North 416 479 41,000  Level Atlanta Center
12:48PM 36.6178 -82.1617 360° North 433 498 41,000  Level Indianapolis Center
12:49PM 36.7397 -82.1617 360° North 436 502 41,000  Level Indianapolis Center
12:50PM 36.8819 -82.1619 360° North 439 505 41,000  Level Indianapolis Center
12:51PM 37.0028 -82.1622 360° North 436 502 41,000  Level Indianapolis Center
12:52PM 37.1244 -82.1614 360° North 437 503 41,000  Level Indianapolis Center
12:53PM 37.2450 -82.1608 360° North 434 499 41,000  Level Indianapolis Center
12:54PM 37.3664 -82.1619 360° North 436 502 41,000  Level Indianapolis Center
12:55PM 37.5097 -82.1622 360° North 440 506 41,000  Level Indianapolis Center
12:56PM 37.6317 -82.1619 360° North 439 505 41,000  Level Indianapolis Center
12:57PM 37.7536 -82.1619 360° North 437 503 41,000  Level Indianapolis Center
12:58PM 37.8881 -82.1614 360° North 442 509 41,000  Level Indianapolis Center
12:59PM 37.9989 -82.1617 360° North 439 505 41,000  Level Indianapolis Center
01:00PM 38.1344 -82.1617 360° North 443 510 41,000  Level Indianapolis Center
01:01PM 38.2589 -82.1617 360° North 445 512 41,000  Level Indianapolis Center
01:02PM 38.3831 -82.1625 360° North 443 510 41,000  Level Indianapolis Center
01:03PM 38.5086 -82.1619 360° North 446 513 41,000  Level Indianapolis Center
01:04PM 38.6336 -82.1631 360° North 447 514 41,000  Level Indianapolis Center
01:05PM 38.7594 -82.1625 360° North 446 513 41,000  Level Indianapolis Center
01:06PM 38.9108 -82.1617 360° North 449 517 41,000  Level Indianapolis Center
01:07PM 39.0358 -82.1625 360° North 447 514 41,000  Level Indianapolis Center
01:08PM 39.1608 -82.1631 360° North 446 513 41,000  Level Indianapolis Center
01:09PM 39.2881 -82.1611 North 453 521 41,000 -180 Level Indianapolis Center
01:10PM 39.4131 -82.1625 360° North 448 516 40,700 -1,020 Descending Indianapolis Center
01:12PM 39.5467 -82.1608 North 426 490 38,900 -1,740 Descending Indianapolis Center
01:13PM 39.6550 -82.1614 360° North 390 449 37,200 -1,500 Descending Indianapolis Center
01:14PM 39.7642 -82.1633 359° North 391 450 35,800 -1,260 Descending Indianapolis Center
01:15PM 39.8836 -82.1608 North 422 486 34,700 -1,260 Descending Indianapolis Center
01:16PM 40.0089 -82.1611 360° North 444 511 33,300 -1,200 Descending Indianapolis Center
01:17PM 40.1392 -82.1622 360° North 462 532 32,300 -1,260 Descending Indianapolis Center
01:18PM 40.2867 -82.1611 360° North 474 545 30,700 -1,140 Descending Indianapolis Center
01:19PM 40.4164 -82.1619 360° North 464 534 30,000 -360 Descending Indianapolis Center
01:20PM 40.5478 -82.1606 360° North 466 536 30,000 -300 Level Indianapolis Center
01:21PM 40.6806 -82.1617 360° North 471 542 29,400 -1,560 Descending Indianapolis Center
01:22PM 40.8092 -82.1614 360° North 459 528 26,800 -2,340 Descending Indianapolis Center
01:23PM 40.9106 -82.1767 354° North 449 517 25,200 -1,500 Descending Cleveland Center
01:24PM 41.0206 -82.2289 340° North 422 486 24,200 -960 Descending Cleveland Center
01:25PM 41.1406 -82.2869 340° North 417 480 23,300 -1,620 Descending Cleveland Center
01:26PM 41.2419 -82.3367 340° North 407 468 21,000 -2,100 Descending Cleveland Center
01:27PM 41.3475 -82.3864 341° North 401 461 19,100 -1,080 Descending Cleveland Center
01:28PM 41.4489 -82.4364 340° North 395 455 18,900 -1,200 Descending Cleveland Center
01:29PM 41.5419 -82.4781 341° North 367 422 16,800 -2,340 Descending Cleveland Center
01:29PM 41.5917 -82.5017 340° North 364 419 15,400 -2,580 Descending Cleveland Center
01:30PM 41.6536 -82.5314 340° North 371 427 13,900 -2,640 Descending Cleveland Center
01:31PM 41.7364 -82.5756 338° Northwest 367 422 11,500 -2,100 Descending Cleveland Center
01:32PM 41.8292 -82.6203 340° North 367 422 10,000 -1,020 Descending Cleveland Center
01:33PM 41.9119 -82.6675 337° Northwest 344 396 9,500 -1,140 Descending Cleveland Center
01:34PM 41.9797 -82.7200 330° Northwest 307 353 7,800 -1,800 Descending Cleveland Center
01:35PM 42.0517 -82.7672 334° Northwest 289 333 6,000 -1,680 Descending Cleveland Center
01:36PM 42.1197 -82.8142 333° Northwest 277 319 4,500 -1,200 Descending Cleveland Center
01:37PM 42.1833 -82.8586 333° Northwest 272 313 3,700 -780 Descending Cleveland Center
01:38PM 42.2408 -82.8969 334° Northwest 261 300 3,000 -360 Descending Cleveland Center
01:39PM 42.2964 -82.9328 334° Northwest 245 282 3,000 -360 Level Cleveland Center
01:40PM 42.3681 -83.0058 323° Northwest 212 244 2,200 -540 Descending Cleveland Center
01:41PM 42.4003 -83.0575 310° West 163 188 1,800 -360 Descending Cleveland Center
01:42PM 42.4375 -83.0647 352° North 146 168 1,500 -480 Descending Cleveland Center
01:43PM 42.4258 -83.0275 113° Southeast 128 147 900 -660 Descending Cleveland Center
01:45PM 42.4093 -83.0102 132° Southeast  Level Estimated